Terminal Aerodrome Forecast
Issued by NWS

Home | Current Version | Previous Version | Text Only | Print | Product List | Glossary On
Versions: 1 2 3 4 5 6 7 8 9 10 11 12 13
000
FTUS45 KGGW 231732
TAFOLF
TAF
KOLF 231732Z 2318/2418 25010KT P6SM SCT110 WS020/26045KT
     FM240500 26014G23KT P6SM BKN100 WS020/26045KT
     FM241000 28019G28KT P6SM SCT070=

USA.gov is the U.S. government's official web portal to all federal, state and local government web resources and services.